ADDS METAR Data INFO
IDs: Format: Raw Decoded Include TAF

Data at: 2338 UTC 26 May 2018

METAR for:PAAK (Atka Arpt, AK, US)
Text:PAAK 262256Z AUTO 27010KT 10SM OVC020 06/03 A3024 RMK AO2 SLP241 T00610033
Temperature: 6.1°C ( 43°F)
Dewpoint: 3.3°C ( 38°F) [RH = 82%]
Pressure (altimeter):30.24 inches Hg (1024.1 mb) [Sea level pressure: 1024.1 mb]
Winds:from the W (270 degrees) at 12 MPH (10 knots; 5.1 m/s)
Visibility:10 or more sm (16+ km)
Ceiling:2000 feet AGL
Clouds: overcast cloud deck at 2000 feet AGL
QC Flag:automated observation with no human augmentation
Text:PAAK 262156Z AUTO 30009KT 10SM OVC016 06/03 A3025 RMK AO2 SLP245 T00560033
Temperature: 5.6°C ( 42°F)
Dewpoint: 3.3°C ( 38°F) [RH = 85%]
Pressure (altimeter):30.25 inches Hg (1024.5 mb) [Sea level pressure: 1024.5 mb]
Winds:from the WNW (300 degrees) at 10 MPH (9 knots; 4.6 m/s)
Visibility:10 or more sm (16+ km)
Ceiling:1600 feet AGL
Clouds: overcast cloud deck at 1600 feet AGL
QC Flag:automated observation with no human augmentation
Text:PAAK 262147Z AUTO 30009KT 10SM SCT010 OVC016 06/03 A3025 RMK AO2
Temperature: 6.0°C ( 43°F)
Dewpoint: 3.0°C ( 37°F) [RH = 81%]
Pressure (altimeter):30.25 inches Hg (1024.5 mb)
Winds:from the WNW (300 degrees) at 10 MPH (9 knots; 4.6 m/s)
Visibility:10 or more sm (16+ km)
Ceiling:1600 feet AGL
Clouds: scattered clouds at 1000 feet AGL, overcast cloud deck at 1600 feet AGL
QC Flag:automated observation with no human augmentation
Text:PAAK 262111Z AUTO 31010KT 7SM FEW007 OVC014 05/03 A3025 RMK AO2
Temperature: 5.0°C ( 41°F)
Dewpoint: 3.0°C ( 37°F) [RH = 87%]
Pressure (altimeter):30.25 inches Hg (1024.5 mb)
Winds:from the NW (310 degrees) at 12 MPH (10 knots; 5.1 m/s)
Visibility: 7 sm ( 11 km)
Ceiling:1400 feet AGL
Clouds: few clouds at 700 feet AGL, overcast cloud deck at 1400 feet AGL
QC Flag:automated observation with no human augmentation
Text:PAAK 262103Z AUTO 30011KT 4SM BR BKN009 OVC014 05/03 A3026 RMK AO2 CIG 006V011
Temperature: 5.0°C ( 41°F)
Dewpoint: 3.0°C ( 37°F) [RH = 87%]
Pressure (altimeter):30.26 inches Hg (1024.8 mb)
Winds:from the WNW (300 degrees) at 13 MPH (11 knots; 5.7 m/s)
Visibility: 4 sm ( 6 km)
Ceiling:900 feet AGL
Clouds: broken clouds at 900 feet AGL, overcast cloud deck at 1400 feet AGL
Weather:BR (mist)
QC Flag:automated observation with no human augmentation
Text:PAAK 262056Z AUTO 30010KT 6SM BR BKN011 OVC017 05/04 A3026 RMK AO2 RAE23 SLP247 P0000 60000 T00500039 58001
Temperature: 5.0°C ( 41°F)
Dewpoint: 3.9°C ( 39°F) [RH = 93%]
Pressure (altimeter):30.26 inches Hg (1024.8 mb) [Sea level pressure: 1024.7 mb]
Winds:from the WNW (300 degrees) at 12 MPH (10 knots; 5.1 m/s)
Visibility: 6 sm ( 10 km)
Ceiling:1100 feet AGL
Clouds: broken clouds at 1100 feet AGL, overcast cloud deck at 1700 feet AGL
Weather:BR (mist)
QC Flag:automated observation with no human augmentation
Text:PAAK 262021Z AUTO 29011KT 4SM -RA BR BKN007 OVC016 05/03 A3028 RMK AO2 CIG 005V011 P0000
Temperature: 5.0°C ( 41°F)
Dewpoint: 3.0°C ( 37°F) [RH = 87%]
Pressure (altimeter):30.28 inches Hg (1025.5 mb)
Winds:from the WNW (290 degrees) at 13 MPH (11 knots; 5.7 m/s)
Visibility: 4 sm ( 6 km)
Ceiling:700 feet AGL
Clouds: broken clouds at 700 feet AGL, overcast cloud deck at 1600 feet AGL
Weather:-RA BR (light rain, mist)
QC Flag:automated observation with no human augmentation
Text:PAAK 261956Z AUTO 29012KT 2 1/2SM -RA BR BKN007 OVC011 04/03 A3028 RMK AO2 VIS 1 1/2V5 RAB30 SLP254 P0000 T00440033
Temperature: 4.4°C ( 40°F)
Dewpoint: 3.3°C ( 38°F) [RH = 93%]
Pressure (altimeter):30.28 inches Hg (1025.5 mb) [Sea level pressure: 1025.4 mb]
Winds:from the WNW (290 degrees) at 14 MPH (12 knots; 6.2 m/s)
Visibility: 2.50 sm ( 4.02 km)
Ceiling:700 feet AGL
Clouds: broken clouds at 700 feet AGL, overcast cloud deck at 1100 feet AGL
Weather:-RA BR (light rain, mist)
QC Flag:automated observation with no human augmentation
Text:PAAK 261926Z AUTO 29012KT 2 1/2SM BR SCT009 OVC014 04/03 A3025 RMK AO2
Temperature: 4.0°C ( 39°F)
Dewpoint: 3.0°C ( 37°F) [RH = 93%]
Pressure (altimeter):30.25 inches Hg (1024.5 mb)
Winds:from the WNW (290 degrees) at 14 MPH (12 knots; 6.2 m/s)
Visibility: 2.50 sm ( 4.02 km)
Ceiling:1400 feet AGL
Clouds: scattered clouds at 900 feet AGL, overcast cloud deck at 1400 feet AGL
Weather:BR (mist)
QC Flag:automated observation with no human augmentation
Text:PAAK 261856Z AUTO 29012KT 10SM SCT008 OVC015 05/03 A3024 RMK AO2 RAE00 SLP242 P0000 T00500028
Temperature: 5.0°C ( 41°F)
Dewpoint: 2.8°C ( 37°F) [RH = 86%]
Pressure (altimeter):30.24 inches Hg (1024.1 mb) [Sea level pressure: 1024.2 mb]
Winds:from the WNW (290 degrees) at 14 MPH (12 knots; 6.2 m/s)
Visibility:10 or more sm (16+ km)
Ceiling:1500 feet AGL
Clouds: scattered clouds at 800 feet AGL, overcast cloud deck at 1500 feet AGL
QC Flag:automated observation with no human augmentation
Text:PAAK 261846Z AUTO 30011KT 7SM BKN008 OVC015 05/03 A3024 RMK AO2 RAE00 PRESFR P0000
Temperature: 5.0°C ( 41°F)
Dewpoint: 3.0°C ( 37°F) [RH = 87%]
Pressure (altimeter):30.24 inches Hg (1024.1 mb)
Winds:from the WNW (300 degrees) at 13 MPH (11 knots; 5.7 m/s)
Visibility: 7 sm ( 11 km)
Ceiling:800 feet AGL
Clouds: broken clouds at 800 feet AGL, overcast cloud deck at 1500 feet AGL
QC Flag:automated observation with no human augmentation
Text:PAAK 261819Z AUTO 30009KT 10SM FEW009 OVC015 05/03 A3026 RMK AO2 RAE00 P0000
Temperature: 5.0°C ( 41°F)
Dewpoint: 3.0°C ( 37°F) [RH = 87%]
Pressure (altimeter):30.26 inches Hg (1024.8 mb)
Winds:from the WNW (300 degrees) at 10 MPH (9 knots; 4.6 m/s)
Visibility:10 or more sm (16+ km)
Ceiling:1500 feet AGL
Clouds: few clouds at 900 feet AGL, overcast cloud deck at 1500 feet AGL
QC Flag:automated observation with no human augmentation
Text:PAAK 261807Z AUTO 29012KT 10SM BKN009 OVC015 04/03 A3026 RMK AO2 RAE00 CIG 007V012 P0000
Temperature: 4.0°C ( 39°F)
Dewpoint: 3.0°C ( 37°F) [RH = 93%]
Pressure (altimeter):30.26 inches Hg (1024.8 mb)
Winds:from the WNW (290 degrees) at 14 MPH (12 knots; 6.2 m/s)
Visibility:10 or more sm (16+ km)
Ceiling:900 feet AGL
Clouds: broken clouds at 900 feet AGL, overcast cloud deck at 1500 feet AGL
QC Flag:automated observation with no human augmentation
Text:PAAK 261756Z AUTO 30010KT 3SM -RA BR SCT007 OVC013 04/03 A3026 RMK AO2 SLP248 P0000 60000 T00440033 10044 20039 51005
Temperature: 4.4°C ( 40°F)
Dewpoint: 3.3°C ( 38°F) [RH = 93%]
Pressure (altimeter):30.26 inches Hg (1024.8 mb) [Sea level pressure: 1024.8 mb]
Winds:from the WNW (300 degrees) at 12 MPH (10 knots; 5.1 m/s)
Visibility: 3 sm ( 5 km)
Ceiling:1300 feet AGL
Clouds: scattered clouds at 700 feet AGL, overcast cloud deck at 1300 feet AGL
Weather:-RA BR (light rain, mist)
QC Flag:automated observation with no human augmentation
Text:PAAK 261741Z AUTO 29013KT 2SM -RA BR BKN007 OVC014 04/03 A3026 RMK AO2 VIS 1 1/4V4 CIG 005V010 P0000
Temperature: 4.0°C ( 39°F)
Dewpoint: 3.0°C ( 37°F) [RH = 93%]
Pressure (altimeter):30.26 inches Hg (1024.8 mb)
Winds:from the WNW (290 degrees) at 15 MPH (13 knots; 6.7 m/s)
Visibility: 2.00 sm ( 3.22 km)
Ceiling:700 feet AGL
Clouds: broken clouds at 700 feet AGL, overcast cloud deck at 1400 feet AGL
Weather:-RA BR (light rain, mist)
QC Flag:automated observation with no human augmentation
Text:PAAK 261733Z AUTO 29009KT 1SM -RA BR BKN007 OVC012 04/03 A3025 RMK AO2 CIG 005V009 P0000
Temperature: 4.0°C ( 39°F)
Dewpoint: 3.0°C ( 37°F) [RH = 93%]
Pressure (altimeter):30.25 inches Hg (1024.5 mb)
Winds:from the WNW (290 degrees) at 10 MPH (9 knots; 4.6 m/s)
Visibility: 1.00 sm ( 1.61 km)
Ceiling:700 feet AGL
Clouds: broken clouds at 700 feet AGL, overcast cloud deck at 1200 feet AGL
Weather:-RA BR (light rain, mist)
QC Flag:automated observation with no human augmentation
Text:PAAK 261717Z AUTO 30009KT 1 3/4SM BR FEW005 OVC012 04/03 A3025 RMK AO2 VIS 3/4V5 RAE06 P0000
Temperature: 4.0°C ( 39°F)
Dewpoint: 3.0°C ( 37°F) [RH = 93%]
Pressure (altimeter):30.25 inches Hg (1024.5 mb)
Winds:from the WNW (300 degrees) at 10 MPH (9 knots; 4.6 m/s)
Visibility: 1.75 sm ( 2.82 km)
Ceiling:1200 feet AGL
Clouds: few clouds at 500 feet AGL, overcast cloud deck at 1200 feet AGL
Weather:BR (mist)
QC Flag:automated observation with no human augmentation
Text:PAAK 261708Z AUTO 31009KT 5SM BR FEW007 OVC014 04/03 A3026 RMK AO2 RAE06 P0000
Temperature: 4.0°C ( 39°F)
Dewpoint: 3.0°C ( 37°F) [RH = 93%]
Pressure (altimeter):30.26 inches Hg (1024.8 mb)
Winds:from the NW (310 degrees) at 10 MPH (9 knots; 4.6 m/s)
Visibility: 5 sm ( 8 km)
Ceiling:1400 feet AGL
Clouds: few clouds at 700 feet AGL, overcast cloud deck at 1400 feet AGL
Weather:BR (mist)
QC Flag:automated observation with no human augmentation
Text:PAAK 261659Z AUTO 31008KT 2SM -RA BR SCT006 OVC014 04/03 A3025 RMK AO2 VIS 3/4V5 P0000
Temperature: 4.0°C ( 39°F)
Dewpoint: 3.0°C ( 37°F) [RH = 93%]
Pressure (altimeter):30.25 inches Hg (1024.5 mb)
Winds:from the NW (310 degrees) at 9 MPH (8 knots; 4.1 m/s)
Visibility: 2.00 sm ( 3.22 km)
Ceiling:1400 feet AGL
Clouds: scattered clouds at 600 feet AGL, overcast cloud deck at 1400 feet AGL
Weather:-RA BR (light rain, mist)
QC Flag:automated observation with no human augmentation
Text:PAAK 261656Z AUTO 31009KT 1 1/4SM -RA BR BKN006 OVC014 04/03 A3025 RMK AO2 VIS 3/4V5 RAB32 CIG 005V008 SLP245 P0000 T00390028
Temperature: 3.9°C ( 39°F)
Dewpoint: 2.8°C ( 37°F) [RH = 93%]
Pressure (altimeter):30.25 inches Hg (1024.5 mb) [Sea level pressure: 1024.5 mb]
Winds:from the NW (310 degrees) at 10 MPH (9 knots; 4.6 m/s)
Visibility: 1.25 sm ( 2.01 km)
Ceiling:600 feet AGL
Clouds: broken clouds at 600 feet AGL, overcast cloud deck at 1400 feet AGL
Weather:-RA BR (light rain, mist)
QC Flag:automated observation with no human augmentation
Text:PAAK 261647Z AUTO 30008KT 2SM -RA BR BKN008 OVC014 04/03 A3025 RMK AO2 RAB32 CIG 006V010 P0000
Temperature: 4.0°C ( 39°F)
Dewpoint: 3.0°C ( 37°F) [RH = 93%]
Pressure (altimeter):30.25 inches Hg (1024.5 mb)
Winds:from the WNW (300 degrees) at 9 MPH (8 knots; 4.1 m/s)
Visibility: 2.00 sm ( 3.22 km)
Ceiling:800 feet AGL
Clouds: broken clouds at 800 feet AGL, overcast cloud deck at 1400 feet AGL
Weather:-RA BR (light rain, mist)
QC Flag:automated observation with no human augmentation
Text:PAAK 261638Z AUTO 31008KT 1 1/2SM -RA BR BKN008 OVC012 04/03 A3025 RMK AO2 VIS 1V4 RAB32 CIG 006V011 P0000
Temperature: 4.0°C ( 39°F)
Dewpoint: 3.0°C ( 37°F) [RH = 93%]
Pressure (altimeter):30.25 inches Hg (1024.5 mb)
Winds:from the NW (310 degrees) at 9 MPH (8 knots; 4.1 m/s)
Visibility: 1.50 sm ( 2.41 km)
Ceiling:800 feet AGL
Clouds: broken clouds at 800 feet AGL, overcast cloud deck at 1200 feet AGL
Weather:-RA BR (light rain, mist)
QC Flag:automated observation with no human augmentation
Text:PAAK 261631Z AUTO 31008KT 2SM BR BKN008 OVC012 04/03 A3024 RMK AO2 CIG 007V011
Temperature: 4.0°C ( 39°F)
Dewpoint: 3.0°C ( 37°F) [RH = 93%]
Pressure (altimeter):30.24 inches Hg (1024.1 mb)
Winds:from the NW (310 degrees) at 9 MPH (8 knots; 4.1 m/s)
Visibility: 2.00 sm ( 3.22 km)
Ceiling:800 feet AGL
Clouds: broken clouds at 800 feet AGL, overcast cloud deck at 1200 feet AGL
Weather:BR (mist)
QC Flag:automated observation with no human augmentation
Text:PAAK 261556Z AUTO 31009KT 9SM OVC010 04/02 A3024 RMK AO2 SLP243 T00390022
Temperature: 3.9°C ( 39°F)
Dewpoint: 2.2°C ( 36°F) [RH = 89%]
Pressure (altimeter):30.24 inches Hg (1024.1 mb) [Sea level pressure: 1024.3 mb]
Winds:from the NW (310 degrees) at 10 MPH (9 knots; 4.6 m/s)
Visibility: 9 sm ( 14 km)
Ceiling:1000 feet AGL
Clouds: overcast cloud deck at 1000 feet AGL
QC Flag:automated observation with no human augmentation
Text:PAAK 261456Z AUTO 31009KT 10SM OVC010 04/02 A3024 RMK AO2 CIG 008V012 SLP240 60000 T00390022 53008
Temperature: 3.9°C ( 39°F)
Dewpoint: 2.2°C ( 36°F) [RH = 89%]
Pressure (altimeter):30.24 inches Hg (1024.1 mb) [Sea level pressure: 1024.0 mb]
Winds:from the NW (310 degrees) at 10 MPH (9 knots; 4.6 m/s)
Visibility:10 or more sm (16+ km)
Ceiling:1000 feet AGL
Clouds: overcast cloud deck at 1000 feet AGL
QC Flag:automated observation with no human augmentation
Text:PAAK 261356Z AUTO 30006KT 10SM OVC012 04/03 A3022 RMK AO2 SLP236 T00390028
Temperature: 3.9°C ( 39°F)
Dewpoint: 2.8°C ( 37°F) [RH = 93%]
Pressure (altimeter):30.22 inches Hg (1023.5 mb) [Sea level pressure: 1023.6 mb]
Winds:from the WNW (300 degrees) at 7 MPH (6 knots; 3.1 m/s)
Visibility:10 or more sm (16+ km)
Ceiling:1200 feet AGL
Clouds: overcast cloud deck at 1200 feet AGL
QC Flag:automated observation with no human augmentation
Text:PAAK 261305Z AUTO 29010KT 10SM OVC014 04/03 A3022 RMK AO2
Temperature: 4.0°C ( 39°F)
Dewpoint: 3.0°C ( 37°F) [RH = 93%]
Pressure (altimeter):30.22 inches Hg (1023.5 mb)
Winds:from the WNW (290 degrees) at 12 MPH (10 knots; 5.1 m/s)
Visibility:10 or more sm (16+ km)
Ceiling:1400 feet AGL
Clouds: overcast cloud deck at 1400 feet AGL
QC Flag:automated observation with no human augmentation
Text:PAAK 261240Z AUTO 30011KT 10SM BKN016 OVC020 04/03 A3022 RMK AO2 RAE13 P0000
Temperature: 4.0°C ( 39°F)
Dewpoint: 3.0°C ( 37°F) [RH = 93%]
Pressure (altimeter):30.22 inches Hg (1023.5 mb)
Winds:from the WNW (300 degrees) at 13 MPH (11 knots; 5.7 m/s)
Visibility:10 or more sm (16+ km)
Ceiling:1600 feet AGL
Clouds: broken clouds at 1600 feet AGL, overcast cloud deck at 2000 feet AGL
QC Flag:automated observation with no human augmentation
Text:PAAK 261227Z AUTO 30011KT 9SM BKN014 OVC020 04/03 A3022 RMK AO2 RAE13 P0000
Temperature: 4.0°C ( 39°F)
Dewpoint: 3.0°C ( 37°F) [RH = 93%]
Pressure (altimeter):30.22 inches Hg (1023.5 mb)
Winds:from the WNW (300 degrees) at 13 MPH (11 knots; 5.7 m/s)
Visibility: 9 sm ( 14 km)
Ceiling:1400 feet AGL
Clouds: broken clouds at 1400 feet AGL, overcast cloud deck at 2000 feet AGL
QC Flag:automated observation with no human augmentation
Text:PAAK 261219Z AUTO 30010KT 10SM SCT012 OVC020 04/03 A3022 RMK AO2 RAE13 P0000
Temperature: 4.0°C ( 39°F)
Dewpoint: 3.0°C ( 37°F) [RH = 93%]
Pressure (altimeter):30.22 inches Hg (1023.5 mb)
Winds:from the WNW (300 degrees) at 12 MPH (10 knots; 5.1 m/s)
Visibility:10 or more sm (16+ km)
Ceiling:2000 feet AGL
Clouds: scattered clouds at 1200 feet AGL, overcast cloud deck at 2000 feet AGL
QC Flag:automated observation with no human augmentation
Text:PAAK 261156Z AUTO 30014KT 4SM -RA BR FEW008 OVC014 04/03 A3021 RMK AO2 RAB25 SLP232 P0000 60000 7//// T00390028 10050 20039 51008
Temperature: 3.9°C ( 39°F)
Dewpoint: 2.8°C ( 37°F) [RH = 93%]
Pressure (altimeter):30.21 inches Hg (1023.1 mb) [Sea level pressure: 1023.2 mb]
Winds:from the WNW (300 degrees) at 16 MPH (14 knots; 7.2 m/s)
Visibility: 4 sm ( 6 km)
Ceiling:1400 feet AGL
Clouds: few clouds at 800 feet AGL, overcast cloud deck at 1400 feet AGL
Weather:-RA BR (light rain, mist)
QC Flag:automated observation with no human augmentation